createdAt,value
2019-05-19T00:01:09.542Z,66.80
2019-05-19T00:06:06.634Z,66.62
2019-05-19T00:11:03.754Z,67.03
2019-05-19T00:16:00.863Z,66.95
2019-05-19T00:21:00.293Z,66.29
2019-05-19T00:25:57.607Z,66.46
2019-05-19T00:30:55.711Z,66.73
2019-05-19T00:35:52.726Z,66.53
2019-05-19T00:40:49.805Z,66.80
2019-05-19T00:45:48.665Z,66.82
2019-05-19T00:50:48.447Z,66.81
2019-05-19T00:55:45.763Z,66.77
2019-05-19T01:00:42.836Z,66.36
2019-05-19T01:05:40.016Z,65.78
2019-05-19T01:10:37.100Z,66.22
2019-05-19T01:15:34.414Z,65.47
2019-05-19T01:20:32.581Z,65.91
2019-05-19T01:25:31.943Z,66.22
2019-05-19T01:30:29.065Z,66.85
2019-05-19T01:35:26.057Z,66.57
2019-05-19T01:40:25.932Z,66.82
2019-05-19T01:45:22.984Z,66.33
2019-05-19T01:50:20.125Z,66.36
2019-05-19T01:55:17.264Z,66.62
2019-05-19T02:00:14.626Z,66.63
2019-05-19T02:05:13.109Z,66.32
2019-05-19T02:10:11.415Z,66.60
2019-05-19T02:15:09.099Z,66.58
2019-05-19T02:20:07.783Z,66.72
2019-05-19T02:25:04.885Z,66.48
2019-05-19T02:30:07.698Z,66.33
2019-05-19T02:35:05.724Z,66.34
2019-05-19T02:40:04.175Z,66.07
2019-05-19T02:45:02.300Z,65.97
2019-05-19T02:50:00.473Z,66.13
2019-05-19T02:55:01.721Z,66.64
2019-05-19T02:59:59.874Z,66.45
2019-05-19T03:04:56.950Z,66.51
2019-05-19T03:09:54.076Z,66.66
2019-05-19T03:14:51.181Z,66.42
2019-05-19T03:19:48.242Z,66.59
2019-05-19T03:24:45.282Z,66.66
2019-05-19T03:29:45.952Z,66.37
2019-05-19T03:34:43.293Z,65.68
2019-05-19T03:39:40.317Z,65.55
2019-05-19T03:44:37.478Z,65.78
2019-05-19T03:49:36.301Z,65.26
2019-05-19T03:54:35.204Z,64.91
2019-05-19T03:59:34.079Z,64.81
2019-05-19T04:04:31.309Z,63.22
2019-05-19T04:09:28.373Z,63.45
2019-05-19T04:14:25.410Z,63.35
2019-05-19T04:19:27.016Z,63.12
2019-05-19T04:24:26.039Z,63.11
2019-05-19T04:29:23.082Z,62.73
2019-05-19T04:34:21.504Z,61.83
2019-05-19T04:39:18.687Z,61.88
2019-05-19T04:44:15.778Z,61.25
2019-05-19T04:49:14.721Z,60.47
2019-05-19T04:54:11.694Z,60.26
2019-05-19T04:59:08.798Z,60.83
2019-05-19T05:04:05.873Z,60.71
2019-05-19T05:09:05.786Z,59.99
2019-05-19T05:14:02.968Z,60.04
2019-05-19T05:18:59.972Z,58.84
2019-05-19T05:24:00.858Z,55.99
2019-05-19T05:29:00.942Z,57.20
2019-05-19T05:34:01.465Z,53.62
2019-05-19T05:39:02.293Z,54.19
2019-05-19T05:43:59.429Z,54.00
2019-05-19T05:49:00.222Z,53.36
2019-05-19T05:53:58.556Z,50.88
2019-05-19T05:58:55.654Z,49.48
2019-05-19T06:03:56.336Z,50.36
2019-05-19T06:08:53.775Z,46.74
2019-05-19T06:13:50.848Z,47.00
2019-05-19T06:18:50.237Z,46.87
2019-05-19T06:23:47.669Z,48.27
2019-05-19T06:28:46.523Z,49.37
2019-05-19T06:33:43.595Z,46.68
2019-05-19T06:38:41.815Z,46.39
2019-05-19T06:43:40.302Z,47.02
2019-05-19T06:48:41.661Z,44.90
2019-05-19T06:53:38.873Z,43.55
2019-05-19T06:58:36.225Z,44.10
2019-05-19T07:03:38.501Z,41.73
2019-05-19T07:08:39.367Z,45.51
2019-05-19T07:13:39.319Z,39.64
2019-05-19T07:18:36.465Z,39.50
2019-05-19T07:23:37.204Z,41.72
2019-05-19T07:28:34.032Z,38.67
2019-05-19T07:33:32.897Z,37.80
2019-05-19T07:38:31.563Z,37.43
2019-05-19T07:43:28.711Z,38.12
2019-05-19T07:48:27.386Z,38.73
2019-05-19T07:53:26.560Z,39.17
2019-05-19T07:58:23.639Z,36.36
2019-05-19T08:03:22.598Z,32.70
2019-05-19T08:08:19.806Z,34.98
2019-05-19T08:13:20.582Z,30.87
2019-05-19T08:18:17.731Z,36.63
2019-05-19T08:23:14.869Z,32.73
2019-05-19T08:28:14.163Z,33.27
2019-05-19T08:33:11.222Z,32.35
2019-05-19T08:38:10.234Z,33.92
2019-05-19T08:43:07.275Z,33.16
2019-05-19T08:48:04.489Z,33.34
2019-05-19T08:53:02.729Z,32.11
2019-05-19T08:58:09.194Z,37.12
2019-05-19T09:03:02.240Z,38.02
2019-05-19T09:07:59.392Z,36.66
2019-05-19T09:13:00.287Z,36.40
2019-05-19T09:17:57.516Z,35.55
2019-05-19T09:22:56.479Z,39.39
2019-05-19T09:27:53.584Z,37.22
2019-05-19T09:32:50.707Z,39.22
2019-05-19T09:37:49.711Z,38.94
2019-05-19T09:42:46.839Z,37.70
2019-05-19T09:47:43.958Z,38.16
2019-05-19T09:52:41.066Z,38.46
2019-05-19T09:57:38.140Z,38.15
2019-05-19T10:02:35.217Z,36.10
2019-05-19T10:07:33.139Z,38.10
2019-05-19T10:12:30.478Z,32.77
2019-05-19T10:17:29.752Z,34.88
2019-05-19T10:22:26.941Z,36.24
2019-05-19T10:27:24.145Z,29.98
2019-05-19T10:32:21.340Z,33.95
2019-05-19T10:37:18.530Z,33.04
2019-05-19T10:42:15.846Z,34.51
2019-05-19T10:47:12.999Z,31.40
2019-05-19T10:52:10.264Z,34.08
2019-05-19T10:57:07.461Z,33.70
2019-05-19T11:02:09.753Z,35.28
2019-05-19T11:07:09.834Z,37.30
2019-05-19T11:12:06.907Z,37.75
2019-05-19T11:17:05.262Z,38.74
2019-05-19T11:22:02.453Z,40.08
2019-05-19T11:27:00.643Z,42.69
2019-05-19T11:31:59.264Z,44.00
2019-05-19T11:37:00.480Z,48.01
2019-05-19T11:41:59.857Z,46.70
2019-05-19T11:46:56.879Z,45.96
2019-05-19T11:51:55.909Z,44.66
2019-05-19T11:56:57.013Z,46.41
2019-05-19T12:01:54.252Z,45.94
2019-05-19T12:06:51.796Z,46.65
2019-05-19T12:11:50.472Z,48.63
2019-05-19T12:16:47.677Z,47.46
2019-05-19T12:21:45.986Z,47.67
2019-05-19T12:26:43.154Z,47.85
2019-05-19T12:31:40.268Z,48.20
2019-05-19T12:36:37.506Z,46.28
2019-05-19T12:41:34.630Z,42.34
2019-05-19T12:46:33.631Z,45.07
2019-05-19T12:51:38.017Z,40.69
2019-05-19T12:56:39.747Z,41.72
2019-05-19T13:01:34.030Z,42.28
2019-05-19T13:06:31.398Z,42.25
2019-05-19T13:11:31.434Z,41.94
2019-05-19T13:16:31.156Z,40.66
2019-05-19T13:21:29.831Z,39.30
2019-05-19T13:26:29.575Z,39.62
2019-05-19T13:31:28.673Z,40.49
2019-05-19T13:36:27.074Z,38.69
2019-05-19T13:41:25.642Z,37.72
2019-05-19T13:46:29.379Z,40.22
2019-05-19T13:51:28.376Z,38.12
2019-05-19T13:56:25.619Z,39.23
2019-05-19T14:01:28.657Z,40.65
2019-05-19T14:06:24.056Z,40.61
2019-05-19T14:11:21.120Z,40.14
2019-05-19T14:16:22.768Z,40.22
2019-05-19T14:21:24.331Z,40.48
2019-05-19T14:26:23.024Z,39.23
2019-05-19T14:31:22.139Z,40.48
2019-05-19T14:36:20.776Z,38.60
2019-05-19T14:41:31.575Z,35.89
2019-05-19T14:46:16.814Z,37.39
2019-05-19T14:51:13.933Z,38.31
2019-05-19T14:56:11.155Z,38.04
2019-05-19T15:01:10.476Z,37.74
2019-05-19T15:06:09.398Z,37.56
2019-05-19T15:11:06.585Z,39.18
2019-05-19T15:16:05.542Z,37.13
2019-05-19T15:21:03.986Z,39.13
2019-05-19T15:26:03.424Z,38.75
2019-05-19T15:31:00.505Z,38.59
2019-05-19T15:35:59.307Z,38.91
2019-05-19T15:40:57.774Z,39.84
2019-05-19T15:45:54.823Z,39.46
2019-05-19T15:50:51.914Z,38.33
2019-05-19T15:55:49.079Z,39.98
2019-05-19T16:00:49.966Z,39.03
2019-05-19T16:05:51.546Z,40.81
2019-05-19T16:10:53.072Z,40.36
2019-05-19T16:15:50.233Z,40.79
2019-05-19T16:20:51.006Z,41.66
2019-05-19T16:25:49.839Z,43.31
2019-05-19T16:30:47.782Z,43.23
2019-05-19T16:35:46.674Z,43.46
2019-05-19T16:40:45.043Z,43.11
2019-05-19T16:45:42.110Z,42.82
2019-05-19T16:50:39.237Z,43.72
2019-05-19T16:55:36.325Z,43.59
2019-05-19T17:00:34.604Z,45.13
2019-05-19T17:05:31.746Z,45.59
2019-05-19T17:10:31.046Z,45.39
2019-05-19T17:15:30.038Z,45.62
2019-05-19T17:20:30.722Z,46.68
2019-05-19T17:25:26.881Z,46.40
2019-05-19T17:30:27.771Z,48.73
2019-05-19T17:35:24.910Z,49.02
2019-05-19T17:40:23.920Z,49.19
2019-05-19T17:45:26.370Z,49.19
2019-05-19T17:50:33.690Z,49.66
2019-05-19T17:55:33.214Z,50.51
2019-05-19T18:00:41.526Z,49.84
2019-05-19T18:05:38.769Z,50.46
2019-05-19T18:10:36.093Z,51.30
2019-05-19T18:15:33.812Z,52.18
2019-05-19T18:20:31.455Z,52.24
2019-05-19T18:25:28.592Z,52.82
2019-05-19T18:30:29.011Z,52.48
2019-05-19T18:35:26.164Z,53.19
2019-05-19T18:40:24.457Z,53.89
2019-05-19T18:45:21.446Z,55.40
2019-05-19T18:50:18.515Z,56.45
2019-05-19T18:55:15.486Z,56.63
2019-05-19T19:00:23.142Z,57.32
2019-05-19T19:05:20.113Z,56.54
2019-05-19T19:10:17.729Z,58.34
2019-05-19T19:15:14.924Z,58.91
2019-05-19T19:20:12.012Z,59.11
2019-05-19T19:25:08.984Z,59.34
2019-05-19T19:30:07.026Z,59.06
2019-05-19T19:35:07.327Z,60.69
2019-05-19T19:40:06.137Z,60.47
2019-05-19T19:45:04.068Z,60.97
2019-05-19T19:50:01.227Z,61.53
2019-05-19T19:55:00.292Z,60.71
2019-05-19T19:59:57.550Z,61.28
2019-05-19T20:04:57.321Z,61.03
2019-05-19T20:09:54.425Z,61.37
2019-05-19T20:14:51.532Z,62.74
2019-05-19T20:19:48.658Z,62.27
2019-05-19T20:24:45.696Z,61.03
2019-05-19T20:29:44.205Z,61.68
2019-05-19T20:34:40.877Z,62.17
2019-05-19T20:39:40.750Z,60.79
2019-05-19T20:44:40.678Z,60.97
2019-05-19T20:49:37.771Z,61.19
2019-05-19T20:54:34.714Z,62.42
2019-05-19T20:59:31.798Z,64.18
2019-05-19T21:04:28.917Z,63.06
2019-05-19T21:09:26.076Z,63.29
2019-05-19T21:14:23.037Z,62.90
2019-05-19T21:19:20.151Z,61.62
2019-05-19T21:24:17.233Z,63.35
2019-05-19T21:29:14.366Z,62.64
2019-05-19T21:34:11.375Z,61.99
2019-05-19T21:39:08.422Z,62.40
2019-05-19T21:44:05.512Z,63.42
2019-05-19T21:49:04.455Z,62.35
2019-05-19T21:54:01.414Z,65.05
2019-05-19T21:58:58.597Z,63.69
2019-05-19T22:03:55.868Z,64.13
2019-05-19T22:08:52.980Z,63.06
2019-05-19T22:13:49.957Z,63.08
2019-05-19T22:18:48.771Z,63.74
2019-05-19T22:23:45.801Z,64.30
2019-05-19T22:28:42.860Z,63.46
2019-05-19T22:33:41.595Z,65.16
2019-05-19T22:38:38.930Z,64.90
2019-05-19T22:43:37.854Z,64.52
2019-05-19T22:48:35.042Z,64.10
2019-05-19T22:53:32.946Z,65.50
2019-05-19T22:58:30.379Z,65.09
2019-05-19T23:03:27.421Z,66.33
2019-05-19T23:08:24.443Z,66.22
2019-05-19T23:13:21.414Z,65.95
2019-05-19T23:18:18.541Z,65.81
2019-05-19T23:23:15.543Z,66.19
2019-05-19T23:28:12.582Z,65.74
2019-05-19T23:33:09.572Z,64.44
2019-05-19T23:38:06.673Z,65.21
2019-05-19T23:43:03.744Z,65.15
2019-05-19T23:48:00.858Z,64.96
2019-05-19T23:52:57.829Z,66.30
2019-05-19T23:57:54.971Z,64.19
